createdAt,value
2023-03-05T00:02:06.935Z,99703.88
2023-03-05T00:04:33.663Z,99701.22
2023-03-05T00:07:00.424Z,99706.44
2023-03-05T00:09:26.965Z,99697.44
2023-03-05T00:11:53.376Z,99707.22
2023-03-05T00:14:20.309Z,99698.50
2023-03-05T00:16:47.001Z,99702.91
2023-03-05T00:19:13.566Z,99702.84
2023-03-05T00:21:41.767Z,99711.56
2023-03-05T00:24:15.407Z,99709.41
2023-03-05T00:26:42.035Z,99705.69
2023-03-05T00:29:09.788Z,99708.44
2023-03-05T00:31:37.213Z,99709.44
2023-03-05T00:34:15.274Z,99708.06
2023-03-05T00:36:44.158Z,99704.91
2023-03-05T00:39:11.745Z,99700.94
2023-03-05T00:41:38.296Z,99705.69
2023-03-05T00:44:05.176Z,99701.06
2023-03-05T00:46:32.089Z,99698.22
2023-03-05T00:48:58.590Z,99700.19
2023-03-05T00:51:26.517Z,99698.84
2023-03-05T00:53:53.439Z,99692.22
2023-03-05T00:56:20.117Z,99694.72
2023-03-05T00:58:46.660Z,99694.72
2023-03-05T01:01:14.484Z,99698.66
2023-03-05T01:03:41.572Z,99697.91
2023-03-05T01:06:11.654Z,99690.13
2023-03-05T01:08:38.958Z,99691.72
2023-03-05T01:11:07.383Z,99685.66
2023-03-05T01:13:33.863Z,99681.72
2023-03-05T01:16:01.682Z,99685.75
2023-03-05T01:18:28.267Z,99681.91
2023-03-05T01:20:54.878Z,99682.34
2023-03-05T01:23:21.818Z,99670.88
2023-03-05T01:26:00.052Z,99675.41
2023-03-05T01:28:26.804Z,99670.19
2023-03-05T01:30:53.667Z,99674.03
2023-03-05T01:33:20.165Z,99675.00
2023-03-05T01:35:50.199Z,99668.06
2023-03-05T01:38:17.581Z,99662.59
2023-03-05T01:40:44.602Z,99658.03
2023-03-05T01:43:11.243Z,99655.75
2023-03-05T01:45:38.844Z,99654.88
2023-03-05T01:48:05.506Z,99645.41
2023-03-05T01:50:33.691Z,99649.78
2023-03-05T01:53:06.459Z,99643.19
2023-03-05T01:55:37.139Z,99647.22
2023-03-05T01:58:08.230Z,99639.94
2023-03-05T02:00:39.525Z,99645.31
2023-03-05T02:03:09.402Z,99641.91
2023-03-05T02:05:38.140Z,99639.34
2023-03-05T02:08:08.576Z,99633.09
2023-03-05T02:10:39.344Z,99635.16
2023-03-05T02:13:09.775Z,99628.25
2023-03-05T02:15:38.054Z,99624.66
2023-03-05T02:18:05.994Z,99631.81
2023-03-05T02:20:56.252Z,99623.53
2023-03-05T02:23:25.489Z,99612.66
2023-03-05T02:25:52.952Z,99626.19
2023-03-05T02:28:28.479Z,99615.56
2023-03-05T02:30:56.802Z,99612.66
2023-03-05T02:33:23.377Z,99606.50
2023-03-05T02:35:50.280Z,99607.88
2023-03-05T02:38:19.175Z,99600.59
2023-03-05T02:40:46.202Z,99606.34
2023-03-05T02:43:14.542Z,99599.84
2023-03-05T02:45:40.958Z,99615.75
2023-03-05T02:48:07.797Z,99601.22
2023-03-05T02:50:35.062Z,99603.78
2023-03-05T02:53:01.940Z,99607.78
2023-03-05T02:55:28.549Z,99598.50
2023-03-05T02:57:55.371Z,99598.16
2023-03-05T03:00:22.233Z,99595.09
2023-03-05T03:02:48.738Z,99593.78
2023-03-05T03:05:15.504Z,99592.56
2023-03-05T03:07:42.414Z,99585.28
2023-03-05T03:10:09.563Z,99585.81
2023-03-05T03:12:43.964Z,99585.91
2023-03-05T03:15:12.394Z,99582.59
2023-03-05T03:17:39.653Z,99582.75
2023-03-05T03:20:11.666Z,99575.84
2023-03-05T03:22:38.303Z,99583.81
2023-03-05T03:25:05.502Z,99581.84
2023-03-05T03:27:32.079Z,99567.63
2023-03-05T03:30:04.981Z,99577.75
2023-03-05T03:32:32.564Z,99574.88
2023-03-05T03:34:59.580Z,99576.69
2023-03-05T03:37:26.512Z,99573.28
2023-03-05T03:39:53.375Z,99575.19
2023-03-05T03:42:21.709Z,99574.38
2023-03-05T03:44:48.653Z,99572.31
2023-03-05T03:47:15.356Z,99566.34
2023-03-05T03:49:42.564Z,99566.34
2023-03-05T03:52:09.051Z,99566.34
2023-03-05T03:54:36.119Z,99567.41
2023-03-05T03:57:05.544Z,99556.44
2023-03-05T03:59:32.371Z,99557.91
2023-03-05T04:01:59.141Z,99554.50
2023-03-05T04:04:26.908Z,99558.94
2023-03-05T04:06:53.375Z,99555.44
2023-03-05T04:09:20.128Z,99548.44
2023-03-05T04:11:46.627Z,99549.19
2023-03-05T04:14:13.023Z,99546.72
2023-03-05T04:16:39.495Z,99539.72
2023-03-05T04:19:05.946Z,99532.03
2023-03-05T04:21:33.587Z,99538.88
2023-03-05T04:23:59.987Z,99535.53
2023-03-05T04:26:26.577Z,99537.16
2023-03-05T04:28:52.994Z,99529.38
2023-03-05T04:31:20.978Z,99526.22
2023-03-05T04:33:47.503Z,99519.03
2023-03-05T04:36:14.293Z,99525.28
2023-03-05T04:38:40.976Z,99521.81
2023-03-05T04:41:07.419Z,99519.41
2023-03-05T04:43:33.876Z,99521.81
2023-03-05T04:46:00.605Z,99508.28
2023-03-05T04:48:27.114Z,99519.03
2023-03-05T04:50:53.647Z,99506.75
2023-03-05T04:53:20.053Z,99514.88
2023-03-05T04:55:46.627Z,99509.66
2023-03-05T04:58:13.061Z,99505.09
2023-03-05T05:00:39.537Z,99505.78
2023-03-05T05:03:06.461Z,99504.53
2023-03-05T05:05:33.164Z,99497.63
2023-03-05T05:07:59.607Z,99508.13
2023-03-05T05:10:27.003Z,99492.41
2023-03-05T05:12:53.745Z,99495.19
2023-03-05T05:15:21.444Z,99485.16
2023-03-05T05:17:48.140Z,99489.50
2023-03-05T05:20:16.653Z,99487.97
2023-03-05T05:22:44.174Z,99489.69
2023-03-05T05:25:11.291Z,99487.28
2023-03-05T05:27:40.004Z,99482.16
2023-03-05T05:30:27.072Z,99483.28
2023-03-05T05:32:53.474Z,99489.09
2023-03-05T05:35:21.228Z,99484.81
2023-03-05T05:37:47.767Z,99480.72
2023-03-05T05:40:14.562Z,99484.31
2023-03-05T05:42:41.629Z,99477.47
2023-03-05T05:45:09.010Z,99475.50
2023-03-05T05:47:41.695Z,99474.84
2023-03-05T05:50:09.006Z,99476.63
2023-03-05T05:52:35.392Z,99473.44
2023-03-05T05:55:01.928Z,99468.25
2023-03-05T05:57:28.649Z,99466.00
2023-03-05T05:59:55.205Z,99473.38
2023-03-05T06:02:22.232Z,99472.94
2023-03-05T06:04:49.188Z,99470.38
2023-03-05T06:07:16.043Z,99480.50
2023-03-05T06:09:43.683Z,99479.28
2023-03-05T06:12:11.204Z,99477.84
2023-03-05T06:14:37.787Z,99472.28
2023-03-05T06:17:04.520Z,99477.66
2023-03-05T06:19:32.630Z,99476.88
2023-03-05T06:21:59.142Z,99477.84
2023-03-05T06:24:25.686Z,99473.47
2023-03-05T06:26:52.056Z,99482.19
2023-03-05T06:29:18.628Z,99481.84
2023-03-05T06:31:45.373Z,99475.50
2023-03-05T06:34:11.873Z,99475.00
2023-03-05T06:36:39.508Z,99474.81
2023-03-05T06:39:06.547Z,99481.47
2023-03-05T06:41:33.251Z,99485.19
2023-03-05T06:44:02.363Z,99487.91
2023-03-05T06:46:33.967Z,99483.38
2023-03-05T06:49:02.291Z,99484.91
2023-03-05T06:51:31.600Z,99478.59
2023-03-05T06:54:18.025Z,99474.34
2023-03-05T06:56:46.501Z,99475.84
2023-03-05T06:59:14.989Z,99475.84
2023-03-05T07:01:42.673Z,99476.53
2023-03-05T07:04:11.147Z,99479.94
2023-03-05T07:06:42.107Z,99475.50
2023-03-05T07:09:13.383Z,99465.94
2023-03-05T07:11:39.769Z,99463.53
2023-03-05T07:14:06.799Z,99459.78
2023-03-05T07:16:34.408Z,99463.19
2023-03-05T07:19:03.688Z,99466.44
2023-03-05T07:21:34.035Z,99455.28
2023-03-05T07:24:04.648Z,99463.78
2023-03-05T07:26:33.713Z,99461.81
2023-03-05T07:29:00.946Z,99459.84
2023-03-05T07:31:31.128Z,99464.38
2023-03-05T07:33:59.528Z,99460.09
2023-03-05T07:36:27.084Z,99463.72
2023-03-05T07:38:53.866Z,99458.03
2023-03-05T07:41:21.951Z,99458.19
2023-03-05T07:43:52.636Z,99456.63
2023-03-05T07:46:21.595Z,99457.22
2023-03-05T07:48:48.199Z,99449.84
2023-03-05T07:51:18.308Z,99443.78
2023-03-05T07:53:46.111Z,99440.03
2023-03-05T07:56:13.144Z,99446.28
2023-03-05T07:58:39.785Z,99441.53
2023-03-05T08:01:13.953Z,99436.06
2023-03-05T08:03:41.279Z,99441.84
2023-03-05T08:06:08.379Z,99443.63
2023-03-05T08:08:36.123Z,99445.44
2023-03-05T08:11:09.959Z,99437.31
2023-03-05T08:13:36.803Z,99429.25
2023-03-05T08:16:08.932Z,99430.59
2023-03-05T08:18:36.076Z,99430.41
2023-03-05T08:21:03.382Z,99426.63
2023-03-05T08:23:30.559Z,99432.78
2023-03-05T08:25:57.299Z,99427.50
2023-03-05T08:28:23.911Z,99413.16
2023-03-05T08:30:50.672Z,99419.03
2023-03-05T08:33:18.002Z,99408.53
2023-03-05T08:35:45.179Z,99411.19
2023-03-05T08:38:11.782Z,99404.06
2023-03-05T08:40:38.254Z,99409.16
2023-03-05T08:43:05.797Z,99408.78
2023-03-05T08:45:32.291Z,99401.19
2023-03-05T08:47:59.053Z,99400.41
2023-03-05T08:50:25.953Z,99385.50
2023-03-05T08:52:52.927Z,99370.13
2023-03-05T08:55:19.327Z,99370.19
2023-03-05T08:57:46.089Z,99361.59
2023-03-05T09:00:13.798Z,99371.00
2023-03-05T09:02:40.512Z,99374.50
2023-03-05T09:05:07.566Z,99375.56
2023-03-05T09:07:34.567Z,99369.38
2023-03-05T09:10:00.992Z,99363.56
2023-03-05T09:12:27.884Z,99357.19
2023-03-05T09:14:55.363Z,99355.59
2023-03-05T09:17:23.042Z,99354.34
2023-03-05T09:19:50.289Z,99355.59
2023-03-05T09:22:17.224Z,99346.38
2023-03-05T09:24:44.046Z,99349.47
2023-03-05T09:27:10.772Z,99350.50
2023-03-05T09:29:37.725Z,99343.69
2023-03-05T09:32:04.281Z,99339.56
2023-03-05T09:34:31.042Z,99340.41
2023-03-05T09:36:57.429Z,99330.91
2023-03-05T09:39:24.217Z,99339.63
2023-03-05T09:42:02.857Z,99331.31
2023-03-05T09:44:35.432Z,99343.53
2023-03-05T09:47:08.653Z,99338.31
2023-03-05T09:49:45.405Z,99342.47
2023-03-05T09:52:20.672Z,99325.94
2023-03-05T09:54:49.160Z,99334.75
2023-03-05T09:57:24.327Z,99325.41
2023-03-05T09:59:57.646Z,99323.94
2023-03-05T10:02:35.334Z,99316.00
2023-03-05T10:05:04.934Z,99317.34
2023-03-05T10:07:36.494Z,99315.81
2023-03-05T10:10:14.215Z,99311.50
2023-03-05T10:12:52.893Z,99311.28
2023-03-05T10:15:38.254Z,99303.72
2023-03-05T10:18:09.491Z,99305.22
2023-03-05T10:20:56.469Z,99308.66
2023-03-05T10:23:36.267Z,99301.84
2023-03-05T10:26:16.022Z,99289.94
2023-03-05T10:29:11.789Z,99291.13
2023-03-05T10:31:50.371Z,99286.53
2023-03-05T10:34:33.998Z,99291.94
2023-03-05T10:37:09.932Z,99282.94
2023-03-05T10:39:56.963Z,99285.16
2023-03-05T10:42:55.521Z,99281.56
2023-03-05T10:45:28.588Z,99281.44
2023-03-05T10:48:16.950Z,99277.06
2023-03-05T10:50:48.891Z,99279.72
2023-03-05T10:53:27.383Z,99272.69
2023-03-05T10:55:57.810Z,99269.72
2023-03-05T10:58:25.177Z,99270.66
2023-03-05T11:01:22.624Z,99276.31
2023-03-05T11:03:51.811Z,99264.22
2023-03-05T11:06:42.705Z,99257.41
2023-03-05T11:09:20.036Z,99266.31
2023-03-05T11:12:21.569Z,99248.00
2023-03-05T11:15:14.398Z,99241.84
2023-03-05T11:17:45.229Z,99230.78
2023-03-05T11:20:26.882Z,99227.28
2023-03-05T11:23:05.371Z,99229.22
2023-03-05T11:25:34.032Z,99231.03
2023-03-05T11:28:03.606Z,99225.72
2023-03-05T11:30:37.260Z,99226.69
2023-03-05T11:33:11.719Z,99229.13
2023-03-05T11:35:40.175Z,99232.75
2023-03-05T11:38:16.980Z,99235.19
2023-03-05T11:40:43.718Z,99239.69
2023-03-05T11:43:17.493Z,99242.41
2023-03-05T11:45:45.790Z,99247.91
2023-03-05T11:48:18.403Z,99251.59
2023-03-05T11:50:46.891Z,99242.25
2023-03-05T11:53:20.662Z,99246.47
2023-03-05T11:55:54.714Z,99243.81
2023-03-05T11:58:43.530Z,99237.97
2023-03-05T12:01:22.623Z,99231.44
2023-03-05T12:03:51.583Z,99232.81
2023-03-05T12:06:40.834Z,99227.81
2023-03-05T12:09:20.255Z,99228.88
2023-03-05T12:11:50.294Z,99229.28
2023-03-05T12:14:32.034Z,99228.44
2023-03-05T12:17:18.953Z,99216.94
2023-03-05T12:19:58.262Z,99217.56
2023-03-05T12:22:33.526Z,99213.25
2023-03-05T12:25:27.184Z,99214.19
2023-03-05T12:27:53.944Z,99206.13
2023-03-05T12:30:35.810Z,99199.75
2023-03-05T12:33:04.813Z,99194.97
2023-03-05T12:35:39.739Z,99196.19
2023-03-05T12:38:26.486Z,99186.63
2023-03-05T12:40:53.374Z,99190.44
2023-03-05T12:43:32.889Z,99179.47
2023-03-05T12:46:42.707Z,99175.75
2023-03-05T12:49:18.115Z,99173.44
2023-03-05T12:51:47.226Z,99168.97
2023-03-05T12:54:29.837Z,99168.78
2023-03-05T12:57:06.179Z,99153.72
2023-03-05T12:59:42.530Z,99150.34
2023-03-05T13:02:37.365Z,99138.53
2023-03-05T13:05:27.471Z,99133.56
2023-03-05T13:08:15.779Z,99132.81
2023-03-05T13:10:43.749Z,99123.16
2023-03-05T13:13:15.849Z,99112.53
2023-03-05T13:15:47.078Z,99118.69
2023-03-05T13:18:40.758Z,99113.38
2023-03-05T13:21:14.410Z,99107.19
2023-03-05T13:24:15.036Z,99106.56
2023-03-05T13:26:41.486Z,99109.00
2023-03-05T13:29:30.600Z,99101.22
2023-03-05T13:32:31.243Z,99105.25
2023-03-05T13:35:00.459Z,99094.19
2023-03-05T13:37:37.891Z,99094.59
2023-03-05T13:40:29.332Z,99086.38
2023-03-05T13:43:09.790Z,99086.78
2023-03-05T13:45:36.267Z,99085.00
2023-03-05T13:48:06.944Z,99081.94
2023-03-05T13:50:33.279Z,99084.03
2023-03-05T13:53:20.615Z,99074.28
2023-03-05T13:55:48.950Z,99063.66
2023-03-05T13:58:47.404Z,99060.22
2023-03-05T14:01:31.098Z,99052.50
2023-03-05T14:04:16.617Z,99049.81
2023-03-05T14:06:45.994Z,99053.59
2023-03-05T14:09:25.538Z,99047.88
2023-03-05T14:12:00.103Z,99036.59
2023-03-05T14:14:30.654Z,99037.44
2023-03-05T14:17:25.871Z,99036.16
2023-03-05T14:19:52.382Z,99035.41
2023-03-05T14:22:38.885Z,99035.41
2023-03-05T14:25:07.232Z,99026.94
2023-03-05T14:27:36.287Z,99028.28
2023-03-05T14:30:05.062Z,99028.75
2023-03-05T14:32:34.708Z,99009.94
2023-03-05T14:35:04.197Z,99014.63
2023-03-05T14:37:45.267Z,99014.44
2023-03-05T14:40:12.142Z,99003.00
2023-03-05T14:42:54.836Z,98996.81
2023-03-05T14:45:22.820Z,98991.88
2023-03-05T14:47:54.288Z,98995.78
2023-03-05T14:50:27.658Z,98986.97
2023-03-05T14:53:01.304Z,98978.06
2023-03-05T14:55:31.693Z,98976.50
2023-03-05T14:58:04.658Z,98969.09
2023-03-05T15:00:31.772Z,98960.06
2023-03-05T15:02:58.835Z,98950.53
2023-03-05T15:05:25.532Z,98949.06
2023-03-05T15:07:52.343Z,98949.97
2023-03-05T15:10:21.620Z,98942.28
2023-03-05T15:12:50.284Z,98943.72
2023-03-05T15:15:18.372Z,98934.03
2023-03-05T15:17:52.068Z,98937.91
2023-03-05T15:20:25.787Z,98940.66
2023-03-05T15:22:53.321Z,98934.75
2023-03-05T15:25:21.432Z,98929.53
2023-03-05T15:27:48.983Z,98923.00
2023-03-05T15:30:28.281Z,98931.63
2023-03-05T15:32:57.044Z,98931.63
2023-03-05T15:35:25.184Z,98924.53
2023-03-05T15:37:53.425Z,98929.97
2023-03-05T15:40:21.598Z,98931.00
2023-03-05T15:42:48.416Z,98928.06
2023-03-05T15:45:15.552Z,98915.78
2023-03-05T15:47:42.086Z,98918.22
2023-03-05T15:50:09.539Z,98926.19
2023-03-05T15:52:35.992Z,98909.25
2023-03-05T15:55:02.936Z,98920.00
2023-03-05T15:57:29.659Z,98908.03
2023-03-05T15:59:56.220Z,98907.47
2023-03-05T16:02:25.146Z,98904.41
2023-03-05T16:04:51.529Z,98896.09
2023-03-05T16:07:18.237Z,98902.69
2023-03-05T16:09:49.181Z,98899.94
2023-03-05T16:12:20.114Z,98895.84
2023-03-05T16:14:47.448Z,98885.44
2023-03-05T16:17:15.601Z,98891.78
2023-03-05T16:19:46.667Z,98885.97
2023-03-05T16:22:13.073Z,98898.91
2023-03-05T16:24:39.797Z,98895.53
2023-03-05T16:27:06.284Z,98892.59
2023-03-05T16:29:33.968Z,98879.44
2023-03-05T16:32:02.934Z,98881.88
2023-03-05T16:34:30.329Z,98887.28
2023-03-05T16:36:59.086Z,98884.31
2023-03-05T16:39:25.521Z,98880.22
2023-03-05T16:41:52.582Z,98879.69
2023-03-05T16:44:19.725Z,98875.34
2023-03-05T16:46:50.343Z,98875.13
2023-03-05T16:49:16.889Z,98877.38
2023-03-05T16:51:43.293Z,98873.66
2023-03-05T16:54:10.291Z,98872.38
2023-03-05T16:56:37.163Z,98883.50
2023-03-05T16:59:04.212Z,98875.38
2023-03-05T17:01:30.680Z,98876.94
2023-03-05T17:03:59.098Z,98881.72
2023-03-05T17:06:28.986Z,98882.50
2023-03-05T17:08:55.882Z,98875.41
2023-03-05T17:11:23.998Z,98863.13
2023-03-05T17:13:50.371Z,98857.53
2023-03-05T17:16:19.693Z,98858.69
2023-03-05T17:18:46.488Z,98864.84
2023-03-05T17:21:13.962Z,98866.66
2023-03-05T17:23:41.001Z,98863.22
2023-03-05T17:26:13.560Z,98867.91
2023-03-05T17:28:41.228Z,98858.59
2023-03-05T17:31:07.855Z,98862.28
2023-03-05T17:33:36.069Z,98870.44
2023-03-05T17:36:03.783Z,98866.84
2023-03-05T17:38:30.883Z,98861.75
2023-03-05T17:40:57.405Z,98872.16
2023-03-05T17:43:24.205Z,98868.31
2023-03-05T17:45:50.765Z,98861.88
2023-03-05T17:48:17.337Z,98871.28
2023-03-05T17:50:45.373Z,98864.53
2023-03-05T17:53:12.396Z,98871.41
2023-03-05T17:55:39.647Z,98876.81
2023-03-05T17:58:06.354Z,98876.81
2023-03-05T18:00:33.143Z,98866.00
2023-03-05T18:03:00.131Z,98868.13
2023-03-05T18:05:27.951Z,98866.53
2023-03-05T18:07:55.952Z,98869.38
2023-03-05T18:10:24.883Z,98862.09
2023-03-05T18:12:52.067Z,98862.50
2023-03-05T18:15:21.006Z,98870.44
2023-03-05T18:17:47.508Z,98865.13
2023-03-05T18:20:34.784Z,98862.59
2023-03-05T18:23:02.269Z,98865.25
2023-03-05T18:25:31.372Z,98861.75
2023-03-05T18:28:09.764Z,98858.16
2023-03-05T18:30:37.728Z,98855.63
2023-03-05T18:33:05.851Z,98860.91
2023-03-05T18:35:33.502Z,98854.75
2023-03-05T18:38:00.392Z,98853.81
2023-03-05T18:40:29.781Z,98843.31
2023-03-05T18:42:59.733Z,98837.91
2023-03-05T18:45:26.273Z,98839.63
2023-03-05T18:47:54.197Z,98839.72
2023-03-05T18:50:23.708Z,98835.25
2023-03-05T18:52:50.834Z,98827.41
2023-03-05T18:55:19.988Z,98822.13
2023-03-05T18:57:46.924Z,98829.22
2023-03-05T19:00:15.805Z,98823.94
2023-03-05T19:02:42.296Z,98817.66
2023-03-05T19:05:09.465Z,98815.34
2023-03-05T19:07:37.909Z,98822.56
2023-03-05T19:10:09.783Z,98814.50
2023-03-05T19:12:45.414Z,98817.47
2023-03-05T19:15:13.659Z,98816.72
2023-03-05T19:17:40.209Z,98815.53
2023-03-05T19:20:07.767Z,98818.84
2023-03-05T19:22:34.792Z,98808.47
2023-03-05T19:25:01.714Z,98812.91
2023-03-05T19:27:29.010Z,98808.56
2023-03-05T19:29:55.649Z,98804.94
2023-03-05T19:32:23.506Z,98803.06
2023-03-05T19:34:50.614Z,98794.34
2023-03-05T19:37:18.106Z,98794.59
2023-03-05T19:39:44.668Z,98788.44
2023-03-05T19:42:12.266Z,98786.97
2023-03-05T19:44:38.988Z,98791.53
2023-03-05T19:47:05.935Z,98791.94
2023-03-05T19:49:32.742Z,98783.97
2023-03-05T19:51:59.272Z,98793.72
2023-03-05T19:54:26.038Z,98785.69
2023-03-05T19:56:54.860Z,98791.63
2023-03-05T19:59:22.172Z,98786.53
2023-03-05T20:01:49.376Z,98793.72
2023-03-05T20:04:18.947Z,98790.13
2023-03-05T20:06:45.864Z,98785.06
2023-03-05T20:09:13.091Z,98775.19
2023-03-05T20:11:40.522Z,98781.22
2023-03-05T20:14:07.861Z,98787.25
2023-03-05T20:16:40.131Z,98779.31
2023-03-05T20:19:08.177Z,98775.94
2023-03-05T20:21:38.758Z,98775.94
2023-03-05T20:24:09.951Z,98773.81
2023-03-05T20:26:40.402Z,98773.81
2023-03-05T20:29:07.294Z,98775.06
2023-03-05T20:31:36.815Z,98773.69
2023-03-05T20:34:09.068Z,98761.31
2023-03-05T20:36:35.672Z,98770.09
2023-03-05T20:39:03.546Z,98768.84
2023-03-05T20:41:30.401Z,98770.31
2023-03-05T20:43:57.288Z,98770.50
2023-03-05T20:46:26.778Z,98765.75
2023-03-05T20:48:57.498Z,98760.47
2023-03-05T20:51:27.289Z,98750.50
2023-03-05T20:53:58.510Z,98744.03
2023-03-05T20:56:27.799Z,98744.69
2023-03-05T20:58:58.352Z,98745.09
2023-03-05T21:01:25.790Z,98742.66
2023-03-05T21:03:56.998Z,98735.25
2023-03-05T21:06:24.356Z,98735.78
2023-03-05T21:08:50.957Z,98732.06
2023-03-05T21:11:17.374Z,98727.84
2023-03-05T21:13:44.288Z,98716.28
2023-03-05T21:16:15.472Z,98729.63
2023-03-05T21:18:42.016Z,98726.47
2023-03-05T21:21:08.528Z,98725.28
2023-03-05T21:23:35.433Z,98720.19
2023-03-05T21:26:04.401Z,98713.53
2023-03-05T21:28:31.773Z,98714.59
2023-03-05T21:30:58.909Z,98715.13
2023-03-05T21:33:28.124Z,98712.91
2023-03-05T21:35:57.861Z,98714.19
2023-03-05T21:38:25.675Z,98712.47
2023-03-05T21:40:53.767Z,98705.16
2023-03-05T21:43:23.070Z,98697.13
2023-03-05T21:45:54.586Z,98696.69
2023-03-05T21:48:22.424Z,98685.47
2023-03-05T21:50:50.049Z,98689.28
2023-03-05T21:53:18.502Z,98685.47
2023-03-05T21:56:03.191Z,98683.34
2023-03-05T21:58:31.995Z,98678.91
2023-03-05T22:00:59.281Z,98666.19
2023-03-05T22:03:27.055Z,98667.56
2023-03-05T22:05:54.284Z,98664.19
2023-03-05T22:08:22.076Z,98661.97
2023-03-05T22:10:49.186Z,98654.34
2023-03-05T22:13:17.698Z,98654.13
2023-03-05T22:15:49.633Z,98652.09
2023-03-05T22:18:19.332Z,98643.75
2023-03-05T22:20:46.560Z,98646.38
2023-03-05T22:23:13.054Z,98648.19
2023-03-05T22:25:39.583Z,98648.50
2023-03-05T22:28:06.499Z,98642.06
2023-03-05T22:30:33.278Z,98638.53
2023-03-05T22:33:01.782Z,98633.44
2023-03-05T22:35:28.949Z,98628.47
2023-03-05T22:37:55.766Z,98632.41
2023-03-05T22:40:23.268Z,98628.47
2023-03-05T22:42:49.822Z,98623.06
2023-03-05T22:45:18.271Z,98612.59
2023-03-05T22:47:51.328Z,98619.81
2023-03-05T22:50:18.065Z,98612.22
2023-03-05T22:52:44.554Z,98616.84
2023-03-05T22:55:12.932Z,98611.03
2023-03-05T22:57:39.732Z,98596.75
2023-03-05T23:00:09.181Z,98609.78
2023-03-05T23:02:35.829Z,98595.56
2023-03-05T23:05:03.692Z,98595.66
2023-03-05T23:07:33.525Z,98597.63
2023-03-05T23:10:10.623Z,98595.19
2023-03-05T23:12:41.055Z,98590.34
2023-03-05T23:15:10.754Z,98590.56
2023-03-05T23:17:37.806Z,98589.09
2023-03-05T23:20:08.332Z,98594.16
2023-03-05T23:22:38.353Z,98588.66
2023-03-05T23:25:05.675Z,98589.09
2023-03-05T23:27:32.213Z,98584.44
2023-03-05T23:30:25.410Z,98577.44
2023-03-05T23:32:54.196Z,98581.91
2023-03-05T23:35:24.990Z,98586.69
2023-03-05T23:37:53.299Z,98574.28
2023-03-05T23:40:22.523Z,98577.03
2023-03-05T23:42:49.823Z,98575.41
2023-03-05T23:45:18.900Z,98572.53
2023-03-05T23:47:46.043Z,98567.81
2023-03-05T23:50:18.901Z,98575.56
2023-03-05T23:52:46.219Z,98565.72
2023-03-05T23:55:25.093Z,98558.91
2023-03-05T23:57:52.169Z,98554.94
